createdAt,value
2022-08-19T00:02:00.558Z,13.48
2022-08-19T00:04:37.691Z,12.80
2022-08-19T00:07:07.143Z,12.57
2022-08-19T00:09:35.922Z,11.07
2022-08-19T00:12:05.343Z,11.13
2022-08-19T00:14:34.023Z,14.70
2022-08-19T00:17:03.986Z,11.32
2022-08-19T00:19:34.150Z,14.85
2022-08-19T00:22:03.510Z,13.70
2022-08-19T00:24:31.825Z,13.50
2022-08-19T00:27:25.619Z,16.35
2022-08-19T00:29:52.289Z,12.68
2022-08-19T00:32:21.947Z,11.77
2022-08-19T00:34:54.284Z,15.25
2022-08-19T00:37:23.903Z,18.90
2022-08-19T00:39:53.087Z,17.02
2022-08-19T00:42:22.743Z,13.48
2022-08-19T00:44:52.454Z,11.00
2022-08-19T00:47:21.045Z,13.70
2022-08-19T00:49:55.745Z,16.05
2022-08-19T00:52:30.226Z,13.07
2022-08-19T00:54:59.790Z,11.98
2022-08-19T00:57:32.850Z,14.00
2022-08-19T01:00:03.689Z,18.52
2022-08-19T01:02:33.708Z,14.10
2022-08-19T01:05:06.943Z,12.57
2022-08-19T01:07:38.216Z,13.07
2022-08-19T01:10:13.060Z,11.73
2022-08-19T01:12:42.031Z,13.98
2022-08-19T01:15:12.842Z,11.60
2022-08-19T01:17:42.741Z,10.75
2022-08-19T01:20:16.073Z,11.98
2022-08-19T01:22:48.653Z,11.45
2022-08-19T01:25:18.964Z,11.35
2022-08-19T01:27:53.394Z,13.23
2022-08-19T01:30:25.881Z,13.18
2022-08-19T01:32:55.055Z,10.50
2022-08-19T01:35:25.534Z,16.23
2022-08-19T01:37:57.759Z,10.80
2022-08-19T01:40:30.157Z,9.27
2022-08-19T01:43:02.181Z,9.40
2022-08-19T01:45:32.475Z,9.20
2022-08-19T01:48:02.288Z,10.98
2022-08-19T01:50:31.615Z,9.85
2022-08-19T01:53:05.937Z,12.68
2022-08-19T01:55:41.567Z,12.43
2022-08-19T01:58:12.927Z,13.20
2022-08-19T02:00:43.617Z,10.75
2022-08-19T02:03:12.436Z,13.10
2022-08-19T02:05:41.918Z,12.25
2022-08-19T02:08:12.736Z,10.45
2022-08-19T02:10:42.638Z,11.25
2022-08-19T02:13:11.693Z,9.00
2022-08-19T02:15:40.577Z,10.30
2022-08-19T02:18:09.355Z,11.48
2022-08-19T02:20:38.384Z,9.88
2022-08-19T02:23:13.978Z,7.55
2022-08-19T02:25:49.875Z,9.90
2022-08-19T02:28:19.129Z,9.98
2022-08-19T02:30:48.868Z,9.18
2022-08-19T02:33:17.454Z,11.90
2022-08-19T02:35:49.115Z,10.20
2022-08-19T02:38:29.566Z,12.40
2022-08-19T02:41:01.417Z,10.55
2022-08-19T02:43:33.955Z,11.32
2022-08-19T02:46:02.984Z,9.15
2022-08-19T02:48:33.750Z,8.35
2022-08-19T02:51:02.123Z,10.13
2022-08-19T02:53:30.770Z,12.57
2022-08-19T02:56:00.846Z,7.72
2022-08-19T02:58:29.115Z,9.23
2022-08-19T03:00:59.336Z,10.60
2022-08-19T03:03:27.669Z,11.15
2022-08-19T03:06:06.606Z,10.98
2022-08-19T03:08:35.013Z,17.20
2022-08-19T03:11:05.306Z,10.38
2022-08-19T03:13:33.828Z,18.90
2022-08-19T03:16:06.416Z,11.23
2022-08-19T03:18:34.679Z,10.93
2022-08-19T03:21:03.757Z,11.88
2022-08-19T03:23:32.117Z,11.73
2022-08-19T03:26:15.426Z,10.43
2022-08-19T03:28:51.110Z,11.45
2022-08-19T03:31:43.551Z,12.32
2022-08-19T03:34:18.265Z,10.57
2022-08-19T03:36:48.574Z,10.45
2022-08-19T03:39:17.866Z,10.35
2022-08-19T03:41:48.746Z,13.75
2022-08-19T03:44:21.695Z,8.48
2022-08-19T03:46:52.549Z,10.27
2022-08-19T03:49:27.174Z,11.20
2022-08-19T03:51:58.423Z,11.05
2022-08-19T03:54:28.667Z,15.23
2022-08-19T03:56:58.487Z,10.60
2022-08-19T04:00:13.630Z,13.88
2022-08-19T04:02:58.880Z,7.80
2022-08-19T04:05:30.518Z,7.93
2022-08-19T04:07:59.967Z,11.88
2022-08-19T04:10:29.142Z,8.20
2022-08-19T04:12:57.970Z,7.97
2022-08-19T04:15:28.573Z,10.13
2022-08-19T04:17:56.888Z,9.55
2022-08-19T04:20:25.219Z,10.32
2022-08-19T04:22:54.064Z,10.60
2022-08-19T04:25:24.896Z,9.60
2022-08-19T04:27:53.240Z,10.10
2022-08-19T04:30:23.560Z,13.55
2022-08-19T04:32:53.376Z,9.00
2022-08-19T04:35:24.857Z,11.93
2022-08-19T04:37:53.303Z,8.98
2022-08-19T04:40:39.783Z,13.68
2022-08-19T04:43:11.888Z,9.80
2022-08-19T04:45:43.966Z,10.80
2022-08-19T04:48:26.449Z,8.68
2022-08-19T04:50:58.913Z,12.77
2022-08-19T04:53:29.538Z,10.70
2022-08-19T04:55:58.576Z,10.23
2022-08-19T04:58:28.887Z,8.88
2022-08-19T05:01:01.126Z,9.95
2022-08-19T05:03:34.422Z,9.13
2022-08-19T05:06:08.412Z,6.20
2022-08-19T05:08:39.431Z,6.85
2022-08-19T05:11:12.098Z,12.75
2022-08-19T05:13:45.729Z,7.93
2022-08-19T05:16:15.380Z,5.55
2022-08-19T05:19:08.293Z,7.38
2022-08-19T05:21:55.502Z,8.02
2022-08-19T05:24:26.921Z,7.22
2022-08-19T05:26:58.937Z,8.48
2022-08-19T05:29:33.424Z,7.68
2022-08-19T05:32:09.881Z,6.70
2022-08-19T05:34:42.583Z,10.25
2022-08-19T05:37:11.484Z,5.28
2022-08-19T05:39:41.470Z,6.20
2022-08-19T05:42:12.134Z,4.80
2022-08-19T05:44:45.025Z,4.55
2022-08-19T05:47:15.777Z,8.07
2022-08-19T05:49:45.808Z,7.45
2022-08-19T05:52:18.883Z,8.07
2022-08-19T05:54:51.302Z,7.15
2022-08-19T05:57:20.862Z,5.93
2022-08-19T05:59:52.899Z,5.07
2022-08-19T06:02:27.026Z,6.45
2022-08-19T06:04:56.787Z,7.90
2022-08-19T06:07:25.345Z,4.22
2022-08-19T06:10:00.775Z,4.03
2022-08-19T06:12:32.730Z,5.90
2022-08-19T06:15:02.511Z,5.05
2022-08-19T06:17:32.044Z,6.35
2022-08-19T06:20:02.219Z,8.63
2022-08-19T06:22:32.701Z,4.90
2022-08-19T06:25:01.137Z,5.38
2022-08-19T06:27:31.703Z,4.85
2022-08-19T06:30:00.261Z,5.00
2022-08-19T06:32:28.674Z,6.18
2022-08-19T06:34:57.347Z,7.88
2022-08-19T06:37:27.173Z,3.58
2022-08-19T06:39:56.123Z,5.30
2022-08-19T06:42:24.648Z,6.75
2022-08-19T06:44:53.724Z,5.65
2022-08-19T06:47:25.222Z,5.40
2022-08-19T06:50:01.204Z,4.40
2022-08-19T06:52:34.107Z,4.32
2022-08-19T06:55:06.883Z,5.53
2022-08-19T06:57:36.158Z,3.83
2022-08-19T07:00:07.206Z,5.70
2022-08-19T07:02:39.057Z,5.70
2022-08-19T07:05:09.965Z,4.07
2022-08-19T07:07:43.919Z,4.18
2022-08-19T07:10:16.236Z,6.85
2022-08-19T07:12:45.353Z,3.85
2022-08-19T07:15:14.402Z,6.25
2022-08-19T07:17:44.341Z,4.97
2022-08-19T07:20:13.949Z,7.15
2022-08-19T07:22:44.446Z,5.97
2022-08-19T07:25:14.322Z,5.90
2022-08-19T07:27:42.691Z,4.20
2022-08-19T07:30:15.431Z,6.05
2022-08-19T07:32:43.932Z,5.03
2022-08-19T07:35:12.731Z,5.25
2022-08-19T07:37:45.212Z,5.93
2022-08-19T07:40:15.708Z,5.05
2022-08-19T07:42:45.403Z,9.00
2022-08-19T07:45:14.153Z,7.07
2022-08-19T07:47:49.428Z,6.18
2022-08-19T07:50:21.797Z,4.15
2022-08-19T07:52:51.802Z,4.25
2022-08-19T07:55:42.234Z,5.20
2022-08-19T07:58:14.411Z,3.92
2022-08-19T08:00:43.211Z,5.05
2022-08-19T08:03:11.848Z,5.88
2022-08-19T08:06:12.321Z,5.43
2022-08-19T08:08:58.041Z,4.50
2022-08-19T08:11:28.103Z,5.85
2022-08-19T08:14:00.340Z,5.32
2022-08-19T08:19:20.492Z,6.03
2022-08-19T08:21:58.590Z,8.90
2022-08-19T08:24:31.537Z,5.05
2022-08-19T08:27:02.605Z,6.32
2022-08-19T08:29:41.355Z,5.80
2022-08-19T08:32:14.360Z,3.65
2022-08-19T08:34:45.312Z,3.80
2022-08-19T08:37:20.161Z,5.10
2022-08-19T08:39:48.500Z,3.88
2022-08-19T08:42:27.177Z,4.25
2022-08-19T08:45:00.992Z,4.25
2022-08-19T08:47:33.952Z,6.05
2022-08-19T08:50:06.513Z,4.78
2022-08-19T08:52:37.920Z,5.38
2022-08-19T08:55:11.885Z,5.65
2022-08-19T08:57:56.683Z,3.25
2022-08-19T09:00:28.849Z,4.45
2022-08-19T09:03:01.233Z,4.30
2022-08-19T09:05:48.436Z,4.68
2022-08-19T09:08:25.546Z,2.78
2022-08-19T09:10:57.310Z,6.43
2022-08-19T09:13:37.671Z,6.05
2022-08-19T09:16:11.220Z,5.35
2022-08-19T09:18:44.874Z,6.68
2022-08-19T09:21:13.134Z,4.95
2022-08-19T09:23:41.876Z,4.13
2022-08-19T09:26:16.547Z,3.33
2022-08-19T09:28:55.655Z,4.07
2022-08-19T09:31:28.884Z,2.67
2022-08-19T09:33:58.304Z,3.95
2022-08-19T09:36:34.493Z,2.33
2022-08-19T09:39:05.048Z,2.88
2022-08-19T09:41:47.524Z,2.20
2022-08-19T09:44:23.295Z,3.25
2022-08-19T09:46:52.271Z,2.13
2022-08-19T09:49:22.698Z,1.88
2022-08-19T09:51:54.791Z,3.20
2022-08-19T09:54:25.441Z,3.45
2022-08-19T09:56:54.290Z,5.05
2022-08-19T09:59:24.316Z,4.35
2022-08-19T10:01:53.204Z,5.25
2022-08-19T10:04:22.486Z,2.75
2022-08-19T10:06:53.907Z,2.20
2022-08-19T10:09:26.241Z,3.38
2022-08-19T10:12:02.537Z,5.03
2022-08-19T10:14:32.590Z,5.57
2022-08-19T10:17:04.690Z,3.13
2022-08-19T10:19:55.550Z,2.53
2022-08-19T10:22:25.745Z,2.63
2022-08-19T10:24:54.766Z,4.38
2022-08-19T10:27:23.770Z,4.97
2022-08-19T10:29:58.766Z,2.45
2022-08-19T10:32:34.053Z,2.58
2022-08-19T10:35:06.085Z,3.13
2022-08-19T10:37:34.548Z,1.83
2022-08-19T10:40:04.560Z,2.78
2022-08-19T10:42:33.652Z,2.00
2022-08-19T10:45:04.933Z,2.60
2022-08-19T10:47:33.248Z,3.17
2022-08-19T10:50:19.129Z,3.72
2022-08-19T10:52:50.642Z,2.95
2022-08-19T10:55:38.941Z,4.47
2022-08-19T10:58:13.218Z,3.00
2022-08-19T11:00:45.555Z,1.60
2022-08-19T11:03:14.091Z,2.58
2022-08-19T11:05:42.364Z,4.30
2022-08-19T11:08:22.506Z,3.22
2022-08-19T11:11:00.129Z,1.73
2022-08-19T11:13:29.555Z,2.92
2022-08-19T11:16:07.632Z,2.13
2022-08-19T11:18:40.373Z,2.10
2022-08-19T11:21:12.016Z,3.05
2022-08-19T11:23:40.542Z,2.92
2022-08-19T11:26:09.038Z,3.03
2022-08-19T11:28:41.253Z,2.70
2022-08-19T11:31:17.792Z,4.30
2022-08-19T11:33:47.573Z,1.95
2022-08-19T11:36:18.922Z,3.30
2022-08-19T11:38:49.678Z,3.00
2022-08-19T11:41:19.887Z,2.63
2022-08-19T11:43:48.101Z,2.85
2022-08-19T11:46:22.081Z,2.72
2022-08-19T11:48:50.711Z,3.15
2022-08-19T11:51:21.303Z,3.15
2022-08-19T11:53:51.357Z,2.55
2022-08-19T11:56:20.846Z,3.83
2022-08-19T11:58:49.562Z,2.33
2022-08-19T12:01:21.551Z,2.65
2022-08-19T12:03:51.726Z,2.35
2022-08-19T12:06:32.072Z,5.00
2022-08-19T12:09:02.562Z,2.25
2022-08-19T12:11:34.571Z,2.92
2022-08-19T12:14:03.512Z,2.67
2022-08-19T12:16:37.749Z,4.97
2022-08-19T12:19:08.084Z,2.60
2022-08-19T12:21:37.659Z,2.60
2022-08-19T12:24:09.645Z,1.88
2022-08-19T12:26:52.858Z,2.00
2022-08-19T12:29:32.068Z,2.90
2022-08-19T12:32:03.945Z,3.88
2022-08-19T12:34:40.260Z,2.08
2022-08-19T12:37:13.292Z,1.88
2022-08-19T12:39:44.352Z,3.15
2022-08-19T12:42:13.328Z,2.53
2022-08-19T12:44:43.508Z,3.58
2022-08-19T12:47:15.989Z,2.90
2022-08-19T12:49:53.897Z,3.45
2022-08-19T12:52:24.887Z,1.55
2022-08-19T12:54:55.328Z,3.95
2022-08-19T12:57:31.494Z,2.03
2022-08-19T13:00:04.734Z,1.65
2022-08-19T13:02:38.372Z,3.05
2022-08-19T13:05:10.758Z,7.82
2022-08-19T13:07:39.520Z,2.10
2022-08-19T13:10:14.367Z,4.82
2022-08-19T13:12:43.029Z,3.20
2022-08-19T13:15:12.307Z,3.17
2022-08-19T13:17:42.191Z,1.70
2022-08-19T13:20:12.355Z,2.28
2022-08-19T13:22:40.647Z,3.30
2022-08-19T13:25:14.901Z,5.00
2022-08-19T13:27:43.311Z,4.00
2022-08-19T13:30:32.011Z,4.32
2022-08-19T13:33:15.342Z,4.45
2022-08-19T13:35:49.409Z,2.00
2022-08-19T13:38:21.421Z,3.45
2022-08-19T13:40:51.531Z,2.28
2022-08-19T13:43:23.817Z,1.63
2022-08-19T13:45:54.801Z,2.70
2022-08-19T13:48:26.267Z,4.57
2022-08-19T13:50:55.243Z,1.88
2022-08-19T13:53:24.471Z,2.92
2022-08-19T13:55:54.498Z,1.98
2022-08-19T13:58:23.207Z,2.35
2022-08-19T14:00:51.642Z,3.47
2022-08-19T14:03:19.946Z,4.05
2022-08-19T14:05:53.088Z,3.80
2022-08-19T14:08:21.991Z,2.00
2022-08-19T14:10:50.362Z,1.63
2022-08-19T14:13:21.192Z,3.90
2022-08-19T14:15:49.890Z,1.60
2022-08-19T14:18:21.249Z,5.82
2022-08-19T14:20:51.050Z,5.00
2022-08-19T14:23:19.763Z,4.35
2022-08-19T14:25:48.705Z,1.40
2022-08-19T14:28:17.643Z,6.97
2022-08-19T14:30:46.219Z,3.17
2022-08-19T14:33:15.232Z,1.77
2022-08-19T14:35:45.981Z,1.67
2022-08-19T14:38:28.139Z,2.67
2022-08-19T14:41:17.922Z,1.60
2022-08-19T14:43:47.818Z,4.22
2022-08-19T14:46:17.586Z,1.88
2022-08-19T14:48:48.063Z,1.77
2022-08-19T14:51:20.376Z,2.03
2022-08-19T14:53:53.215Z,4.80
2022-08-19T14:56:25.985Z,3.20
2022-08-19T14:58:55.294Z,4.45
2022-08-19T15:01:25.127Z,3.58
2022-08-19T15:03:55.856Z,1.70
2022-08-19T15:06:25.357Z,2.80
2022-08-19T15:08:56.520Z,2.42
2022-08-19T15:11:29.229Z,2.17
2022-08-19T15:13:57.953Z,1.92
2022-08-19T15:16:29.883Z,1.70
2022-08-19T15:19:00.100Z,2.13
2022-08-19T15:21:33.918Z,1.98
2022-08-19T15:24:04.022Z,3.65
2022-08-19T15:26:35.709Z,1.85
2022-08-19T15:29:06.566Z,1.65
2022-08-19T15:31:38.104Z,1.92
2022-08-19T15:34:07.756Z,2.28
2022-08-19T15:36:36.489Z,2.05
2022-08-19T15:39:10.073Z,1.58
2022-08-19T15:41:41.133Z,2.10
2022-08-19T15:44:15.218Z,2.13
2022-08-19T15:46:45.551Z,2.13
2022-08-19T15:49:16.957Z,4.20
2022-08-19T15:51:47.884Z,2.13
2022-08-19T15:54:21.521Z,2.55
2022-08-19T15:57:07.163Z,5.72
2022-08-19T15:59:54.111Z,3.97
2022-08-19T16:02:42.189Z,1.85
2022-08-19T16:05:31.147Z,4.15
2022-08-19T16:07:59.731Z,3.55
2022-08-19T16:10:30.060Z,2.47
2022-08-19T16:12:59.678Z,2.05
2022-08-19T16:15:30.512Z,2.08
2022-08-19T16:18:02.276Z,2.33
2022-08-19T16:20:30.924Z,3.30
2022-08-19T16:23:00.153Z,2.60
2022-08-19T16:25:30.120Z,2.78
2022-08-19T16:28:07.184Z,3.05
2022-08-19T16:30:38.157Z,2.80
2022-08-19T16:33:06.683Z,3.63
2022-08-19T16:35:35.296Z,1.90
2022-08-19T16:38:03.741Z,1.60
2022-08-19T16:40:34.045Z,4.85
2022-08-19T16:43:03.132Z,2.88
2022-08-19T16:45:31.727Z,6.22
2022-08-19T16:48:00.012Z,3.03
2022-08-19T16:50:48.139Z,2.72
2022-08-19T16:53:17.178Z,3.83
2022-08-19T16:55:50.948Z,8.77
2022-08-19T16:58:21.718Z,6.50
2022-08-19T17:01:00.759Z,4.22
2022-08-19T17:03:36.338Z,4.10
2022-08-19T17:06:18.984Z,8.10
2022-08-19T17:08:50.529Z,5.43
2022-08-19T17:11:21.200Z,3.50
2022-08-19T17:13:50.828Z,7.50
2022-08-19T17:16:22.122Z,2.08
2022-08-19T17:18:52.810Z,5.00
2022-08-19T17:21:21.232Z,3.75
2022-08-19T17:23:49.992Z,2.63
2022-08-19T17:26:20.500Z,3.58
2022-08-19T17:28:50.207Z,4.38
2022-08-19T17:31:19.571Z,2.00
2022-08-19T17:33:49.224Z,3.88
2022-08-19T17:36:18.365Z,2.97
2022-08-19T17:38:46.938Z,2.40
2022-08-19T17:41:15.444Z,2.17
2022-08-19T17:43:45.153Z,4.38
2022-08-19T17:46:17.583Z,2.97
2022-08-19T17:48:51.826Z,2.72
2022-08-19T17:51:23.415Z,2.60
2022-08-19T17:53:53.085Z,1.98
2022-08-19T17:56:22.232Z,2.20
2022-08-19T17:59:00.720Z,1.80
2022-08-19T18:01:45.809Z,2.58
2022-08-19T18:04:20.132Z,3.60
2022-08-19T18:06:53.711Z,2.63
2022-08-19T18:09:25.398Z,1.83
2022-08-19T18:11:55.498Z,2.67
2022-08-19T18:14:33.448Z,3.05
2022-08-19T18:17:09.544Z,6.95
2022-08-19T18:19:42.085Z,4.15
2022-08-19T18:22:25.023Z,4.35
2022-08-19T18:24:53.442Z,4.40
2022-08-19T18:27:22.398Z,3.92
2022-08-19T18:29:59.567Z,2.80
2022-08-19T18:32:30.882Z,4.63
2022-08-19T18:35:01.087Z,2.40
2022-08-19T18:37:30.098Z,2.22
2022-08-19T18:40:15.551Z,6.45
2022-08-19T18:43:02.252Z,3.53
2022-08-19T18:45:49.836Z,6.28
2022-08-19T18:48:35.566Z,3.92
2022-08-19T18:51:04.707Z,2.38
2022-08-19T18:53:38.912Z,4.50
2022-08-19T18:56:08.082Z,2.38
2022-08-19T18:58:38.673Z,3.75
2022-08-19T19:01:12.962Z,4.95
2022-08-19T19:03:45.241Z,3.85
2022-08-19T19:06:13.961Z,7.72
2022-08-19T19:08:42.373Z,4.75
2022-08-19T19:11:10.934Z,6.82
2022-08-19T19:13:41.062Z,8.90
2022-08-19T19:16:11.548Z,8.48
2022-08-19T19:18:39.943Z,7.35
2022-08-19T19:21:09.145Z,5.28
2022-08-19T19:23:40.912Z,4.43
2022-08-19T19:26:10.974Z,4.38
2022-08-19T19:28:43.592Z,2.53
2022-08-19T19:31:16.179Z,3.17
2022-08-19T19:33:45.889Z,5.70
2022-08-19T19:36:14.435Z,3.47
2022-08-19T19:38:48.820Z,3.38
2022-08-19T19:41:20.971Z,4.15
2022-08-19T19:44:04.549Z,2.72
2022-08-19T19:46:42.768Z,4.65
2022-08-19T19:49:12.466Z,4.38
2022-08-19T19:51:41.164Z,2.60
2022-08-19T19:54:14.060Z,2.65
2022-08-19T19:56:45.367Z,3.92
2022-08-19T19:59:14.068Z,2.70
2022-08-19T20:01:47.045Z,1.85
2022-08-19T20:04:16.673Z,2.95
2022-08-19T20:06:45.936Z,3.15
2022-08-19T20:09:19.444Z,2.65
2022-08-19T20:11:53.378Z,4.13
2022-08-19T20:14:26.754Z,2.13
2022-08-19T20:16:57.599Z,5.10
2022-08-19T20:19:28.560Z,5.07
2022-08-19T20:21:57.621Z,2.17
2022-08-19T20:24:29.556Z,3.42
2022-08-19T20:26:58.403Z,2.45
2022-08-19T20:29:38.864Z,6.45
2022-08-19T20:32:10.205Z,4.45
2022-08-19T20:34:39.245Z,5.18
2022-08-19T20:37:09.449Z,2.95
2022-08-19T20:39:38.120Z,2.60
2022-08-19T20:42:06.700Z,3.88
2022-08-19T20:44:35.634Z,4.00
2022-08-19T20:47:04.335Z,4.15
2022-08-19T20:49:35.237Z,5.30
2022-08-19T20:52:05.019Z,2.55
2022-08-19T20:54:33.675Z,3.20
2022-08-19T20:57:04.733Z,3.20
2022-08-19T20:59:33.206Z,2.55
2022-08-19T21:02:01.772Z,4.15
2022-08-19T21:04:30.164Z,2.80
2022-08-19T21:06:59.747Z,3.97
2022-08-19T21:09:28.367Z,3.08
2022-08-19T21:11:56.641Z,4.45
2022-08-19T21:14:27.563Z,2.92
2022-08-19T21:16:55.921Z,4.47
2022-08-19T21:19:24.355Z,5.82
2022-08-19T21:21:53.321Z,6.53
2022-08-19T21:24:30.143Z,6.75
2022-08-19T21:27:00.371Z,4.63
2022-08-19T21:29:28.705Z,3.63
2022-08-19T21:31:57.932Z,3.40
2022-08-19T21:34:26.590Z,4.32
2022-08-19T21:36:55.053Z,6.60
2022-08-19T21:39:24.811Z,4.47
2022-08-19T21:41:53.147Z,4.18
2022-08-19T21:44:21.606Z,3.58
2022-08-19T21:46:53.079Z,3.40
2022-08-19T21:49:25.688Z,3.45
2022-08-19T21:51:54.449Z,4.40
2022-08-19T21:54:26.610Z,3.28
2022-08-19T21:57:10.394Z,2.47
2022-08-19T21:59:41.264Z,3.28
2022-08-19T22:02:21.502Z,3.08
2022-08-19T22:04:50.819Z,2.33
2022-08-19T22:07:23.484Z,2.90
2022-08-19T22:09:54.241Z,2.85
2022-08-19T22:12:25.490Z,3.67
2022-08-19T22:14:57.109Z,4.28
2022-08-19T22:17:27.766Z,2.85
2022-08-19T22:19:56.777Z,2.38
2022-08-19T22:22:28.147Z,3.58
2022-08-19T22:25:05.744Z,6.65
2022-08-19T22:27:34.090Z,2.45
2022-08-19T22:30:02.546Z,3.78
2022-08-19T22:32:33.093Z,3.03
2022-08-19T22:35:02.241Z,2.33
2022-08-19T22:37:31.859Z,6.60
2022-08-19T22:40:05.550Z,2.33
2022-08-19T22:42:34.348Z,3.80
2022-08-19T22:45:02.853Z,2.75
2022-08-19T22:47:32.275Z,4.43
2022-08-19T22:50:02.462Z,4.07
2022-08-19T22:52:29.714Z,3.95
2022-08-19T22:55:06.141Z,4.47
2022-08-19T22:57:34.592Z,4.95
2022-08-19T23:00:03.444Z,5.07
2022-08-19T23:02:34.627Z,3.00
2022-08-19T23:05:08.198Z,3.50
2022-08-19T23:07:37.028Z,3.35
2022-08-19T23:10:08.944Z,3.30
2022-08-19T23:12:39.534Z,3.83
2022-08-19T23:15:10.831Z,2.85
2022-08-19T23:17:40.536Z,5.35
2022-08-19T23:20:10.192Z,4.80
2022-08-19T23:22:39.363Z,2.80
2022-08-19T23:25:13.436Z,3.33
2022-08-19T23:27:59.024Z,4.03
2022-08-19T23:30:27.812Z,4.57
2022-08-19T23:32:57.038Z,4.18
2022-08-19T23:35:26.618Z,4.72
2022-08-19T23:37:54.999Z,3.92
2022-08-19T23:40:24.922Z,4.00
2022-08-19T23:42:53.660Z,4.45
2022-08-19T23:45:24.569Z,6.70
2022-08-19T23:47:53.746Z,6.38
2022-08-19T23:50:23.887Z,5.57
2022-08-19T23:52:55.161Z,4.68
2022-08-19T23:55:27.488Z,3.97
2022-08-19T23:57:55.879Z,4.22
